CheckWX is a tool to help pilots better visualize weather data.  It is not intended as a substitute for an official pre-flight weather briefing.

07:08:12 UTC

NCRG TAF
Rarotonga International Airport
Avarua, Samoa
TAF NCRG 170506Z 1706/1806 10007KT 9999 SCT020 PROB30 TEMPO 1712/1718 5000 TSRA FEW018CB

Jun-17@
06:00 UTC

Jun-17 @ 06:00 UTC

Jun-18@
06:00 UTC

Jun-18 @ 06:00 UTC

TAF NCRG 170506Z 1706/1806 10007KT 9999 SCT020
Wind
  • 100° at 7 KTS
Cloud Levels
  • Scattered at 2,000' AGL

Jun-17@
12:00 UTC

Jun-17 @ 12:00 UTC

Jun-17@
18:00 UTC

Jun-17 @ 18:00 UTC

PROB30 TEMPO 1712/1718 5000 TSRA FEW018CB

Temporary - 30% Likelihood

Temporary - 30% Likelihood during this time.

Conditions
Thunderstorm, Rain
Cloud Levels
  • Few at 1,800' AGL